sensor_id;sensor_type;location;lat;lon;timestamp;pressure;altitude;pressure_sealevel;temperature;humidity
4398;BME280;2213;49.720;7.296;2022-11-20T00:01:52;97635.66;;;4.95;100.00
4398;BME280;2213;49.720;7.296;2022-11-20T00:04:23;97633.22;;;4.94;100.00
4398;BME280;2213;49.720;7.296;2022-11-20T00:06:52;97629.00;;;4.93;100.00
4398;BME280;2213;49.720;7.296;2022-11-20T00:09:21;97624.00;;;4.91;100.00
4398;BME280;2213;49.720;7.296;2022-11-20T00:11:51;97618.19;;;4.89;100.00
4398;BME280;2213;49.720;7.296;2022-11-20T00:14:21;97614.44;;;4.92;100.00
4398;BME280;2213;49.720;7.296;2022-11-20T00:16:51;97615.41;;;4.91;100.00
4398;BME280;2213;49.720;7.296;2022-11-20T00:19:22;97617.84;;;4.92;100.00
4398;BME280;2213;49.720;7.296;2022-11-20T00:21:52;97616.03;;;4.93;100.00
4398;BME280;2213;49.720;7.296;2022-11-20T00:24:23;97617.66;;;4.94;100.00
4398;BME280;2213;49.720;7.296;2022-11-20T00:26:53;97617.66;;;4.94;100.00
4398;BME280;2213;49.720;7.296;2022-11-20T00:29:23;97608.94;;;4.95;100.00
4398;BME280;2213;49.720;7.296;2022-11-20T00:31:53;97627.06;;;4.95;100.00
4398;BME280;2213;49.720;7.296;2022-11-20T00:34:25;97616.03;;;4.93;100.00
4398;BME280;2213;49.720;7.296;2022-11-20T00:36:55;97621.06;;;4.94;100.00
4398;BME280;2213;49.720;7.296;2022-11-20T00:39:24;97615.25;;;4.92;100.00
4398;BME280;2213;49.720;7.296;2022-11-20T00:41:54;97608.44;;;4.91;100.00
4398;BME280;2213;49.720;7.296;2022-11-20T00:44:22;97610.06;;;4.92;100.00
4398;BME280;2213;49.720;7.296;2022-11-20T00:46:52;97616.38;;;4.90;100.00
4398;BME280;2213;49.720;7.296;2022-11-20T00:49:23;97620.44;;;4.92;100.00
4398;BME280;2213;49.720;7.296;2022-11-20T00:51:52;97622.22;;;4.92;100.00
4398;BME280;2213;49.720;7.296;2022-11-20T00:54:22;97616.03;;;4.93;100.00
4398;BME280;2213;49.720;7.296;2022-11-20T00:56:53;97626.41;;;4.93;100.00
4398;BME280;2213;49.720;7.296;2022-11-20T00:59:23;97614.59;;;4.90;100.00
4398;BME280;2213;49.720;7.296;2022-11-20T01:01:53;97621.38;;;4.83;100.00
4398;BME280;2213;49.720;7.296;2022-11-20T01:04:24;97626.09;;;4.80;100.00
4398;BME280;2213;49.720;7.296;2022-11-20T01:06:54;97612.81;;;4.83;100.00
4398;BME280;2213;49.720;7.296;2022-11-20T01:09:23;97624.31;;;4.88;100.00
4398;BME280;2213;49.720;7.296;2022-11-20T01:11:52;97625.75;;;4.91;100.00
4398;BME280;2213;49.720;7.296;2022-11-20T01:14:22;97622.53;;;4.89;100.00
4398;BME280;2213;49.720;7.296;2022-11-20T01:16:52;97617.03;;;4.84;100.00
4398;BME280;2213;49.720;7.296;2022-11-20T01:19:24;97618.31;;;4.88;100.00
4398;BME280;2213;49.720;7.296;2022-11-20T01:21:54;97612.00;;;4.90;100.00
4398;BME280;2213;49.720;7.296;2022-11-20T01:24:23;97611.19;;;4.90;100.00
4398;BME280;2213;49.720;7.296;2022-11-20T01:26:52;97611.84;;;4.92;100.00
4398;BME280;2213;49.720;7.296;2022-11-20T01:29:24;97615.06;;;4.94;100.00
4398;BME280;2213;49.720;7.296;2022-11-20T01:31:54;97612.34;;;4.95;100.00
4398;BME280;2213;49.720;7.296;2022-11-20T01:34:25;97610.56;;;4.96;100.00
4398;BME280;2213;49.720;7.296;2022-11-20T01:36:55;97605.19;;;4.97;100.00
4398;BME280;2213;49.720;7.296;2022-11-20T01:39:26;97602.59;;;4.97;100.00
4398;BME280;2213;49.720;7.296;2022-11-20T01:41:56;97601.78;;;4.97;100.00
4398;BME280;2213;49.720;7.296;2022-11-20T01:44:58;97607.78;;;4.97;100.00
4398;BME280;2213;49.720;7.296;2022-11-20T01:47:34;97602.78;;;4.96;100.00
4398;BME280;2213;49.720;7.296;2022-11-20T01:50:13;97612.16;;;4.97;100.00
4398;BME280;2213;49.720;7.296;2022-11-20T01:52:50;97608.59;;;4.98;100.00
4398;BME280;2213;49.720;7.296;2022-11-20T01:55:27;97612.16;;;4.97;100.00
4398;BME280;2213;49.720;7.296;2022-11-20T01:57:59;97604.38;;;4.97;100.00
4398;BME280;2213;49.720;7.296;2022-11-20T02:00:29;97607.16;;;4.95;100.00
4398;BME280;2213;49.720;7.296;2022-11-20T02:03:03;97607.78;;;4.97;100.00
4398;BME280;2213;49.720;7.296;2022-11-20T02:05:40;97611.81;;;5.00;100.00
4398;BME280;2213;49.720;7.296;2022-11-20T02:08:12;97605.06;;;4.99;100.00
4398;BME280;2213;49.720;7.296;2022-11-20T02:10:43;97610.06;;;5.00;100.00
4398;BME280;2213;49.720;7.296;2022-11-20T02:13:12;97608.59;;;4.98;100.00
4398;BME280;2213;49.720;7.296;2022-11-20T02:16:00;97608.28;;;5.01;100.00
4398;BME280;2213;49.720;7.296;2022-11-20T02:18:30;97606.34;;;5.03;100.00
4398;BME280;2213;49.720;7.296;2022-11-20T02:21:06;97606.34;;;5.03;100.00
4398;BME280;2213;49.720;7.296;2022-11-20T02:24:01;97605.53;;;5.02;100.00
4398;BME280;2213;49.720;7.296;2022-11-20T02:26:37;97597.91;;;5.01;100.00
4398;BME280;2213;49.720;7.296;2022-11-20T02:29:08;97596.28;;;5.00;100.00
4398;BME280;2213;49.720;7.296;2022-11-20T02:31:41;97596.28;;;5.00;100.00
4398;BME280;2213;49.720;7.296;2022-11-20T02:34:10;97597.09;;;5.00;100.00
4398;BME280;2213;49.720;7.296;2022-11-20T02:36:42;97587.56;;;5.01;100.00
4398;BME280;2213;49.720;7.296;2022-11-20T02:39:15;97588.38;;;5.01;100.00
4398;BME280;2213;49.720;7.296;2022-11-20T02:41:46;97596.78;;;5.03;100.00
4398;BME280;2213;49.720;7.296;2022-11-20T02:44:15;97592.41;;;5.04;100.00
4398;BME280;2213;49.720;7.296;2022-11-20T02:46:45;97594.34;;;5.02;100.00
4398;BME280;2213;49.720;7.296;2022-11-20T02:49:14;97595.16;;;5.02;100.00
4398;BME280;2213;49.720;7.296;2022-11-20T02:51:44;97584.16;;;5.00;100.00
4398;BME280;2213;49.720;7.296;2022-11-20T02:54:16;97579.78;;;5.01;100.00
4398;BME280;2213;49.720;7.296;2022-11-20T02:56:44;97584.81;;;5.02;100.00
4398;BME280;2213;49.720;7.296;2022-11-20T02:59:14;97583.19;;;5.01;100.00
4398;BME280;2213;49.720;7.296;2022-11-20T03:01:45;97577.50;;;4.98;100.00
4398;BME280;2213;49.720;7.296;2022-11-20T03:04:16;97574.94;;;4.98;100.00
4398;BME280;2213;49.720;7.296;2022-11-20T03:06:46;97580.09;;;4.98;100.00
4398;BME280;2213;49.720;7.296;2022-11-20T03:09:16;97577.50;;;4.98;100.00
4398;BME280;2213;49.720;7.296;2022-11-20T03:11:47;97577.84;;;4.95;100.00
4398;BME280;2213;49.720;7.296;2022-11-20T03:14:17;97579.47;;;4.96;100.00
4398;BME280;2213;49.720;7.296;2022-11-20T03:16:46;97574.94;;;4.98;100.00
4398;BME280;2213;49.720;7.296;2022-11-20T03:19:17;97581.06;;;4.97;100.00
4398;BME280;2213;49.720;7.296;2022-11-20T03:21:47;97574.94;;;4.98;100.00
4398;BME280;2213;49.720;7.296;2022-11-20T03:24:18;97567.78;;;5.00;100.00
4398;BME280;2213;49.720;7.296;2022-11-20T03:26:48;97569.13;;;4.96;100.00
4398;BME280;2213;49.720;7.296;2022-11-20T03:29:19;97566.53;;;4.96;100.00
4398;BME280;2213;49.720;7.296;2022-11-20T03:31:49;97571.53;;;4.97;100.00
4398;BME280;2213;49.720;7.296;2022-11-20T03:34:19;97563.59;;;4.99;100.00
4398;BME280;2213;49.720;7.296;2022-11-20T03:36:48;97566.19;;;4.99;100.00
4398;BME280;2213;49.720;7.296;2022-11-20T03:39:19;97567.63;;;5.01;100.00
4398;BME280;2213;49.720;7.296;2022-11-20T03:41:48;97567.16;;;4.98;100.00
4398;BME280;2213;49.720;7.296;2022-11-20T03:44:21;97560.03;;;4.92;100.00
4398;BME280;2213;49.720;7.296;2022-11-20T03:46:50;97561.00;;;4.83;100.00
4398;BME280;2213;49.720;7.296;2022-11-20T03:49:19;97557.94;;;4.79;100.00
4398;BME280;2213;49.720;7.296;2022-11-20T03:51:49;97559.88;;;4.77;100.00
4398;BME280;2213;49.720;7.296;2022-11-20T03:54:20;97562.97;;;4.81;100.00
4398;BME280;2213;49.720;7.296;2022-11-20T03:56:50;97566.19;;;4.83;100.00
4398;BME280;2213;49.720;7.296;2022-11-20T03:59:19;97569.44;;;4.85;100.00
4398;BME280;2213;49.720;7.296;2022-11-20T04:01:49;97565.41;;;4.82;100.00
4398;BME280;2213;49.720;7.296;2022-11-20T04:04:19;97565.56;;;4.81;100.00
4398;BME280;2213;49.720;7.296;2022-11-20T04:06:49;97560.53;;;4.79;100.00
4398;BME280;2213;49.720;7.296;2022-11-20T04:09:19;97559.25;;;4.75;100.00
4398;BME280;2213;49.720;7.296;2022-11-20T04:11:50;97558.25;;;4.76;100.00
4398;BME280;2213;49.720;7.296;2022-11-20T04:14:20;97560.69;;;4.78;100.00
4398;BME280;2213;49.720;7.296;2022-11-20T04:16:49;97557.16;;;4.79;100.00
4398;BME280;2213;49.720;7.296;2022-11-20T04:19:18;97550.00;;;4.81;100.00
4398;BME280;2213;49.720;7.296;2022-11-20T04:21:47;97553.22;;;4.83;100.00
4398;BME280;2213;49.720;7.296;2022-11-20T04:24:19;97554.88;;;4.84;100.00
4398;BME280;2213;49.720;7.296;2022-11-20T04:26:48;97553.88;;;4.77;100.00
4398;BME280;2213;49.720;7.296;2022-11-20T04:29:18;97549.03;;;4.74;100.00
4398;BME280;2213;49.720;7.296;2022-11-20T04:31:48;97562.00;;;4.74;100.00
4398;BME280;2213;49.720;7.296;2022-11-20T04:34:18;97561.03;;;4.75;100.00
4398;BME280;2213;49.720;7.296;2022-11-20T04:36:48;97559.72;;;4.71;100.00
4398;BME280;2213;49.720;7.296;2022-11-20T04:39:21;97555.50;;;4.70;100.00
4398;BME280;2213;49.720;7.296;2022-11-20T04:41:50;97554.69;;;4.69;100.00
4398;BME280;2213;49.720;7.296;2022-11-20T04:44:41;97556.00;;;4.73;100.00
4398;BME280;2213;49.720;7.296;2022-11-20T04:47:10;97554.06;;;4.75;100.00
4398;BME280;2213;49.720;7.296;2022-11-20T04:49:40;97554.84;;;4.76;100.00
4398;BME280;2213;49.720;7.296;2022-11-20T04:52:09;97561.34;;;4.72;100.00
4398;BME280;2213;49.720;7.296;2022-11-20T04:54:40;97555.38;;;4.71;100.00
4398;BME280;2213;49.720;7.296;2022-11-20T04:57:09;97556.81;;;4.74;100.00
4398;BME280;2213;49.720;7.296;2022-11-20T04:59:41;97557.44;;;4.76;100.00
4398;BME280;2213;49.720;7.296;2022-11-20T05:02:10;97557.16;;;4.79;100.00
4398;BME280;2213;49.720;7.296;2022-11-20T05:04:40;97552.94;;;4.78;100.00
4398;BME280;2213;49.720;7.296;2022-11-20T05:07:10;97549.38;;;4.79;100.00
4398;BME280;2213;49.720;7.296;2022-11-20T05:09:41;97542.38;;;4.79;100.00
4398;BME280;2213;49.720;7.296;2022-11-20T05:12:11;97544.97;;;4.79;100.00
4398;BME280;2213;49.720;7.296;2022-11-20T05:14:41;97546.47;;;4.82;100.00
4398;BME280;2213;49.720;7.296;2022-11-20T05:17:11;97541.91;;;4.84;100.00
4398;BME280;2213;49.720;7.296;2022-11-20T05:19:41;97551.31;;;4.85;100.00
4398;BME280;2213;49.720;7.296;2022-11-20T05:22:14;97546.13;;;4.85;100.00
4398;BME280;2213;49.720;7.296;2022-11-20T05:24:45;97546.28;;;4.83;100.00
4398;BME280;2213;49.720;7.296;2022-11-20T05:27:15;97544.50;;;4.84;100.00
4398;BME280;2213;49.720;7.296;2022-11-20T05:29:43;97541.75;;;4.85;100.00
4398;BME280;2213;49.720;7.296;2022-11-20T05:32:12;97550.34;;;4.86;100.00
4398;BME280;2213;49.720;7.296;2022-11-20T05:34:41;97544.50;;;4.84;100.00
4398;BME280;2213;49.720;7.296;2022-11-20T05:37:10;97538.19;;;4.86;100.00
4398;BME280;2213;49.720;7.296;2022-11-20T05:39:40;97540.63;;;4.88;100.00
4398;BME280;2213;49.720;7.296;2022-11-20T05:42:11;97536.25;;;4.88;100.00
4398;BME280;2213;49.720;7.296;2022-11-20T05:45:00;97539.66;;;4.81;100.00
4398;BME280;2213;49.720;7.296;2022-11-20T05:47:33;97541.44;;;4.80;100.00
4398;BME280;2213;49.720;7.296;2022-11-20T05:50:05;97540.78;;;4.78;100.00
4398;BME280;2213;49.720;7.296;2022-11-20T05:52:34;97545.47;;;4.83;100.00
4398;BME280;2213;49.720;7.296;2022-11-20T05:55:05;97552.94;;;4.86;100.00
4398;BME280;2213;49.720;7.296;2022-11-20T05:57:36;97547.75;;;4.86;100.00
4398;BME280;2213;49.720;7.296;2022-11-20T06:00:09;97547.75;;;4.86;100.00
4398;BME280;2213;49.720;7.296;2022-11-20T06:02:40;97543.84;;;4.90;100.00
4398;BME280;2213;49.720;7.296;2022-11-20T06:05:09;97540.28;;;4.91;100.00
4398;BME280;2213;49.720;7.296;2022-11-20T06:07:39;97543.50;;;4.93;100.00
4398;BME280;2213;49.720;7.296;2022-11-20T06:10:09;97548.69;;;4.93;100.00
4398;BME280;2213;49.720;7.296;2022-11-20T06:12:40;97543.50;;;4.93;100.00
4398;BME280;2213;49.720;7.296;2022-11-20T06:15:10;97544.66;;;4.90;100.00
4398;BME280;2213;49.720;7.296;2022-11-20T06:17:39;97541.91;;;4.92;100.00
4398;BME280;2213;49.720;7.296;2022-11-20T06:20:11;97543.50;;;4.93;100.00
4398;BME280;2213;49.720;7.296;2022-11-20T06:22:41;97538.31;;;4.93;100.00
4398;BME280;2213;49.720;7.296;2022-11-20T06:25:11;97544.31;;;4.93;100.00
4398;BME280;2213;49.720;7.296;2022-11-20T06:27:44;97544.00;;;4.96;100.00
4398;BME280;2213;49.720;7.296;2022-11-20T06:30:14;97545.47;;;4.99;100.00
4398;BME280;2213;49.720;7.296;2022-11-20T06:32:44;97549.66;;;5.00;100.00
4398;BME280;2213;49.720;7.296;2022-11-20T06:35:14;97546.59;;;4.96;100.00
4398;BME280;2213;49.720;7.296;2022-11-20T06:37:44;97547.56;;;4.95;100.00
4398;BME280;2213;49.720;7.296;2022-11-20T06:40:13;97548.38;;;4.96;100.00
4398;BME280;2213;49.720;7.296;2022-11-20T06:42:44;97548.22;;;4.97;100.00
4398;BME280;2213;49.720;7.296;2022-11-20T06:45:13;97542.88;;;4.99;100.00
4398;BME280;2213;49.720;7.296;2022-11-20T06:47:42;97550.47;;;5.00;100.00
4398;BME280;2213;49.720;7.296;2022-11-20T06:50:13;97550.31;;;5.02;100.00
4398;BME280;2213;49.720;7.296;2022-11-20T06:52:43;97557.75;;;5.05;100.00
4398;BME280;2213;49.720;7.296;2022-11-20T06:55:14;97556.59;;;5.07;100.00
4398;BME280;2213;49.720;7.296;2022-11-20T06:57:46;97558.38;;;5.07;100.00
4398;BME280;2213;49.720;7.296;2022-11-20T07:00:22;97554.19;;;5.06;100.00
4398;BME280;2213;49.720;7.296;2022-11-20T07:02:51;97553.88;;;5.09;100.00
4398;BME280;2213;49.720;7.296;2022-11-20T07:05:21;97555.66;;;5.08;100.00
4398;BME280;2213;49.720;7.296;2022-11-20T07:07:51;97555.50;;;5.10;100.00
4398;BME280;2213;49.720;7.296;2022-11-20T07:10:21;97556.94;;;5.13;100.00
4398;BME280;2213;49.720;7.296;2022-11-20T07:12:52;97561.16;;;5.14;100.00
4398;BME280;2213;49.720;7.296;2022-11-20T07:15:24;97560.34;;;5.13;100.00
4398;BME280;2213;49.720;7.296;2022-11-20T07:17:54;97564.72;;;5.13;100.00
4398;BME280;2213;49.720;7.296;2022-11-20T07:20:23;97564.38;;;5.16;100.00
4398;BME280;2213;49.720;7.296;2022-11-20T07:22:54;97560.63;;;5.18;100.00
4398;BME280;2213;49.720;7.296;2022-11-20T07:25:27;97569.06;;;5.20;100.00
4398;BME280;2213;49.720;7.296;2022-11-20T07:28:00;97577.97;;;5.18;100.00
4398;BME280;2213;49.720;7.296;2022-11-20T07:30:29;97583.16;;;5.18;100.00
4398;BME280;2213;49.720;7.296;2022-11-20T07:32:59;97584.97;;;5.17;100.00
4398;BME280;2213;49.720;7.296;2022-11-20T07:35:29;97583.00;;;5.19;100.00
4398;BME280;2213;49.720;7.296;2022-11-20T07:37:59;97592.06;;;5.23;100.00
4398;BME280;2213;49.720;7.296;2022-11-20T07:40:29;97590.91;;;5.26;100.00
4398;BME280;2213;49.720;7.296;2022-11-20T07:43:00;97586.22;;;5.29;100.00
4398;BME280;2213;49.720;7.296;2022-11-20T07:45:31;97588.81;;;5.29;100.00
4398;BME280;2213;49.720;7.296;2022-11-20T07:48:02;97593.66;;;5.32;100.00
4398;BME280;2213;49.720;7.296;2022-11-20T07:50:33;97594.31;;;5.34;100.00
4398;BME280;2213;49.720;7.296;2022-11-20T07:53:04;97594.94;;;5.36;100.00
4398;BME280;2213;49.720;7.296;2022-11-20T07:55:36;97594.81;;;5.38;100.00
4398;BME280;2213;49.720;7.296;2022-11-20T07:58:07;97597.88;;;5.41;100.00
4398;BME280;2213;49.720;7.296;2022-11-20T08:00:37;97600.28;;;5.43;100.00
4398;BME280;2213;49.720;7.296;2022-11-20T08:03:07;97601.72;;;5.45;100.00
4398;BME280;2213;49.720;7.296;2022-11-20T08:05:36;97603.97;;;5.48;100.00
4398;BME280;2213;49.720;7.296;2022-11-20T08:08:06;97603.00;;;5.49;100.00
4398;BME280;2213;49.720;7.296;2022-11-20T08:10:36;97601.88;;;5.52;100.00
4398;BME280;2213;49.720;7.296;2022-11-20T08:13:09;97601.56;;;5.55;100.00
4398;BME280;2213;49.720;7.296;2022-11-20T08:15:59;97605.41;;;5.59;100.00
4398;BME280;2213;49.720;7.296;2022-11-20T08:18:29;97610.44;;;5.61;100.00
4398;BME280;2213;49.720;7.296;2022-11-20T08:21:03;97608.19;;;5.66;100.00
4398;BME280;2213;49.720;7.296;2022-11-20T08:23:32;97614.97;;;5.67;100.00
4398;BME280;2213;49.720;7.296;2022-11-20T08:26:04;97614.63;;;5.70;100.00
4398;BME280;2213;49.720;7.296;2022-11-20T08:28:34;97612.69;;;5.72;100.00
4398;BME280;2213;49.720;7.296;2022-11-20T08:31:06;97618.50;;;5.74;100.00
4398;BME280;2213;49.720;7.296;2022-11-20T08:33:36;97613.97;;;5.76;100.00
4398;BME280;2213;49.720;7.296;2022-11-20T08:36:09;97616.38;;;5.77;100.00
4398;BME280;2213;49.720;7.296;2022-11-20T08:38:40;97612.50;;;5.81;100.00
4398;BME280;2213;49.720;7.296;2022-11-20T08:41:10;97611.34;;;5.84;100.00
4398;BME280;2213;49.720;7.296;2022-11-20T08:43:58;97623.34;;;5.85;100.00
4398;BME280;2213;49.720;7.296;2022-11-20T08:46:32;97619.63;;;5.87;100.00
4398;BME280;2213;49.720;7.296;2022-11-20T08:49:04;97622.69;;;5.91;100.00
4398;BME280;2213;49.720;7.296;2022-11-20T08:51:34;97617.34;;;5.92;100.00
4398;BME280;2213;49.720;7.296;2022-11-20T08:54:05;97623.81;;;5.96;100.00
4398;BME280;2213;49.720;7.296;2022-11-20T08:56:34;97618.44;;;5.98;100.00
4398;BME280;2213;49.720;7.296;2022-11-20T08:59:05;97624.94;;;6.02;100.00
4398;BME280;2213;49.720;7.296;2022-11-20T09:01:54;97624.59;;;6.05;100.00
4398;BME280;2213;49.720;7.296;2022-11-20T09:04:23;97625.25;;;6.07;100.00
4398;BME280;2213;49.720;7.296;2022-11-20T09:06:52;97630.09;;;6.10;100.00
4398;BME280;2213;49.720;7.296;2022-11-20T09:09:21;97638.50;;;6.12;100.00
4398;BME280;2213;49.720;7.296;2022-11-20T09:11:53;97642.38;;;6.16;100.00
4398;BME280;2213;49.720;7.296;2022-11-20T09:14:23;97648.84;;;6.20;100.00
4398;BME280;2213;49.720;7.296;2022-11-20T09:16:56;97649.34;;;6.24;100.00
4398;BME280;2213;49.720;7.296;2022-11-20T09:19:25;97653.38;;;6.26;100.00
4398;BME280;2213;49.720;7.296;2022-11-20T09:22:03;97647.84;;;6.29;100.00
4398;BME280;2213;49.720;7.296;2022-11-20T09:24:35;97648.31;;;6.33;100.00
4398;BME280;2213;49.720;7.296;2022-11-20T09:27:05;97647.97;;;6.36;100.00
4398;BME280;2213;49.720;7.296;2022-11-20T09:29:36;97643.25;;;6.39;100.00
4398;BME280;2213;49.720;7.296;2022-11-20T09:32:06;97648.09;;;6.42;100.00
4398;BME280;2213;49.720;7.296;2022-11-20T09:34:35;97655.38;;;6.47;100.00
4398;BME280;2213;49.720;7.296;2022-11-20T09:37:05;97650.66;;;6.50;100.00
4398;BME280;2213;49.720;7.296;2022-11-20T09:39:36;97645.09;;;6.53;100.00
4398;BME280;2213;49.720;7.296;2022-11-20T09:42:26;97647.19;;;6.58;100.00
4398;BME280;2213;49.720;7.296;2022-11-20T09:45:20;97643.28;;;6.62;100.00
4398;BME280;2213;49.720;7.296;2022-11-20T09:48:37;97644.56;;;6.66;100.00
4398;BME280;2213;49.720;7.296;2022-11-20T09:51:38;97649.22;;;6.71;100.00
4398;BME280;2213;49.720;7.296;2022-11-20T09:54:17;97637.50;;;6.75;100.00
4398;BME280;2213;49.720;7.296;2022-11-20T09:56:54;97644.94;;;6.78;100.00
4398;BME280;2213;49.720;7.296;2022-11-20T09:59:34;97637.63;;;6.81;100.00
4398;BME280;2213;49.720;7.296;2022-11-20T10:02:25;97636.47;;;6.84;100.00
4398;BME280;2213;49.720;7.296;2022-11-20T10:05:04;97642.94;;;6.88;100.00
4398;BME280;2213;49.720;7.296;2022-11-20T10:07:43;97636.41;;;6.92;100.00
4398;BME280;2213;49.720;7.296;2022-11-20T10:10:16;97645.31;;;6.97;100.00
4398;BME280;2213;49.720;7.296;2022-11-20T10:13:05;97632.59;;;7.02;100.00
4398;BME280;2213;49.720;7.296;2022-11-20T10:15:55;97637.63;;;7.04;100.00
4398;BME280;2213;49.720;7.296;2022-11-20T10:18:54;97630.09;;;7.09;100.00
4398;BME280;2213;49.720;7.296;2022-11-20T10:21:37;97616.75;;;7.12;100.00
4398;BME280;2213;49.720;7.296;2022-11-20T10:24:44;97618.81;;;7.17;100.00
4398;BME280;2213;49.720;7.296;2022-11-20T10:27:55;97614.91;;;7.21;100.00
4398;BME280;2213;49.720;7.296;2022-11-20T10:30:27;97616.31;;;7.23;100.00
4398;BME280;2213;49.720;7.296;2022-11-20T10:33:05;97619.56;;;7.25;100.00
4398;BME280;2213;49.720;7.296;2022-11-20T10:35:40;97619.22;;;7.28;100.00
4398;BME280;2213;49.720;7.296;2022-11-20T10:38:19;97617.25;;;7.30;100.00
4398;BME280;2213;49.720;7.296;2022-11-20T10:40:56;97616.88;;;7.33;100.00
4398;BME280;2213;49.720;7.296;2022-11-20T10:43:52;97607.75;;;7.37;100.00
4398;BME280;2213;49.720;7.296;2022-11-20T10:46:23;97612.59;;;7.40;100.00
4398;BME280;2213;49.720;7.296;2022-11-20T10:48:54;97606.03;;;7.44;100.00
4398;BME280;2213;49.720;7.296;2022-11-20T10:51:35;97598.34;;;7.51;100.00
4398;BME280;2213;49.720;7.296;2022-11-20T10:54:17;97595.00;;;7.57;100.00
4398;BME280;2213;49.720;7.296;2022-11-20T10:56:52;97598.72;;;7.63;100.00
4398;BME280;2213;49.720;7.296;2022-11-20T11:00:00;97594.94;;;7.65;100.00
4398;BME280;2213;49.720;7.296;2022-11-20T11:02:35;97594.31;;;7.63;100.00
4398;BME280;2213;49.720;7.296;2022-11-20T11:05:22;97590.19;;;7.69;100.00
4398;BME280;2213;49.720;7.296;2022-11-20T11:07:57;97586.97;;;7.67;100.00
4398;BME280;2213;49.720;7.296;2022-11-20T11:10:36;97584.00;;;7.70;100.00
4398;BME280;2213;49.720;7.296;2022-11-20T11:13:21;97577.78;;;7.71;100.00
4398;BME280;2213;49.720;7.296;2022-11-20T11:15:50;97570.63;;;7.73;100.00
4398;BME280;2213;49.720;7.296;2022-11-20T11:18:27;97565.22;;;7.74;100.00
4398;BME280;2213;49.720;7.296;2022-11-20T11:21:00;97555.81;;;7.73;100.00
4398;BME280;2213;49.720;7.296;2022-11-20T11:23:34;97552.03;;;7.76;100.00
4398;BME280;2213;49.720;7.296;2022-11-20T11:26:18;97550.03;;;7.78;100.00
4398;BME280;2213;49.720;7.296;2022-11-20T11:28:55;97557.53;;;7.81;100.00
4398;BME280;2213;49.720;7.296;2022-11-20T11:31:26;97553.28;;;7.80;100.00
4398;BME280;2213;49.720;7.296;2022-11-20T11:34:05;97557.53;;;7.81;100.00
4398;BME280;2213;49.720;7.296;2022-11-20T11:36:35;97560.56;;;7.84;100.00
4398;BME280;2213;49.720;7.296;2022-11-20T11:39:16;97565.13;;;7.82;100.00
4398;BME280;2213;49.720;7.296;2022-11-20T11:41:47;97552.31;;;7.81;100.00
4398;BME280;2213;49.720;7.296;2022-11-20T11:44:21;97557.97;;;7.84;100.00
4398;BME280;2213;49.720;7.296;2022-11-20T11:47:21;97555.16;;;7.86;100.00
4398;BME280;2213;49.720;7.296;2022-11-20T11:50:02;97546.97;;;7.89;100.00
4398;BME280;2213;49.720;7.296;2022-11-20T11:52:42;97547.63;;;7.91;100.00
4398;BME280;2213;49.720;7.296;2022-11-20T11:55:21;97549.66;;;7.95;100.00
4398;BME280;2213;49.720;7.296;2022-11-20T11:57:59;97539.06;;;7.97;100.00
4398;BME280;2213;49.720;7.296;2022-11-20T12:00:33;97539.69;;;7.99;100.00
4398;BME280;2213;49.720;7.296;2022-11-20T12:03:13;97536.72;;;8.02;100.00
4398;BME280;2213;49.720;7.296;2022-11-20T12:05:50;97528.56;;;8.05;100.00
4398;BME280;2213;49.720;7.296;2022-11-20T12:08:27;97527.19;;;8.09;100.00
4398;BME280;2213;49.720;7.296;2022-11-20T12:11:10;97530.22;;;8.13;100.00
4398;BME280;2213;49.720;7.296;2022-11-20T12:13:51;97521.63;;;8.12;100.00
4398;BME280;2213;49.720;7.296;2022-11-20T12:16:22;97530.66;;;8.16;100.00
4398;BME280;2213;49.720;7.296;2022-11-20T12:18:53;97519.47;;;8.16;100.00
4398;BME280;2213;49.720;7.296;2022-11-20T12:21:34;97519.47;;;8.16;100.00
4398;BME280;2213;49.720;7.296;2022-11-20T12:24:45;97517.28;;;8.19;100.00
4398;BME280;2213;49.720;7.296;2022-11-20T12:27:47;97514.06;;;8.17;100.00
4398;BME280;2213;49.720;7.296;2022-11-20T12:30:20;97518.91;;;8.20;100.00
4398;BME280;2213;49.720;7.296;2022-11-20T12:33:17;97514.50;;;8.21;100.00
4398;BME280;2213;49.720;7.296;2022-11-20T12:36:08;97519.28;;;8.17;100.00
4398;BME280;2213;49.720;7.296;2022-11-20T12:39:12;97504.00;;;8.14;100.00
4398;BME280;2213;49.720;7.296;2022-11-20T12:42:05;97506.69;;;8.21;100.00
4398;BME280;2213;49.720;7.296;2022-11-20T12:45:14;97497.00;;;8.15;100.00
4398;BME280;2213;49.720;7.296;2022-11-20T12:51:23;97471.41;;;8.18;100.00
4398;BME280;2213;49.720;7.296;2022-11-20T12:57:09;97475.88;;;8.24;100.00
4398;BME280;2213;49.720;7.296;2022-11-20T13:00:14;97476.03;;;8.23;100.00
4398;BME280;2213;49.720;7.296;2022-11-20T13:03:09;97484.28;;;8.26;100.00
4398;BME280;2213;49.720;7.296;2022-11-20T13:05:53;97482.34;;;8.28;100.00
4398;BME280;2213;49.720;7.296;2022-11-20T13:08:33;97479.88;;;8.27;100.00
4398;BME280;2213;49.720;7.296;2022-11-20T13:11:12;97473.88;;;8.26;100.00
4398;BME280;2213;49.720;7.296;2022-11-20T13:14:00;97468.06;;;8.24;100.00
4398;BME280;2213;49.720;7.296;2022-11-20T13:16:40;97458.00;;;8.21;100.00
4398;BME280;2213;49.720;7.296;2022-11-20T13:19:15;97459.25;;;8.25;100.00
4398;BME280;2213;49.720;7.296;2022-11-20T13:21:46;97455.03;;;8.24;100.00
4398;BME280;2213;49.720;7.296;2022-11-20T13:24:26;97441.53;;;8.14;100.00
4398;BME280;2213;49.720;7.296;2022-11-20T13:27:18;97441.34;;;8.16;100.00
4398;BME280;2213;49.720;7.296;2022-11-20T13:30:11;97445.75;;;8.15;100.00
4398;BME280;2213;49.720;7.296;2022-11-20T13:32:54;97432.28;;;8.12;100.00
4398;BME280;2213;49.720;7.296;2022-11-20T13:35:31;97434.53;;;8.15;100.00
4398;BME280;2213;49.720;7.296;2022-11-20T13:38:05;97444.94;;;8.15;100.00
4398;BME280;2213;49.720;7.296;2022-11-20T13:40:38;97430.50;;;8.12;100.00
4398;BME280;2213;49.720;7.296;2022-11-20T13:43:23;97433.72;;;8.14;100.00
4398;BME280;2213;49.720;7.296;2022-11-20T13:45:58;97439.72;;;8.15;100.00
4398;BME280;2213;49.720;7.296;2022-11-20T13:48:32;97438.75;;;8.16;100.00
4398;BME280;2213;49.720;7.296;2022-11-20T13:51:24;97433.34;;;8.17;100.00
4398;BME280;2213;49.720;7.296;2022-11-20T13:54:26;97429.88;;;8.10;100.00
4398;BME280;2213;49.720;7.296;2022-11-20T13:57:16;97432.09;;;8.13;100.00
4398;BME280;2213;49.720;7.296;2022-11-20T13:59:58;97432.84;;;8.07;100.00
4398;BME280;2213;49.720;7.296;2022-11-20T14:02:30;97420.81;;;8.06;100.00
4398;BME280;2213;49.720;7.296;2022-11-20T14:05:02;97426.00;;;8.06;100.00
4398;BME280;2213;49.720;7.296;2022-11-20T14:07:37;97412.38;;;8.04;100.00
4398;BME280;2213;49.720;7.296;2022-11-20T14:10:22;97412.38;;;8.04;100.00